createdAt,value
2023-01-12T00:00:06.162Z,5.4
2023-01-12T00:01:05.571Z,5.4
2023-01-12T00:02:09.507Z,5.4
2023-01-12T00:03:06.356Z,5.3
2023-01-12T00:04:06.783Z,5.3
2023-01-12T00:05:05.974Z,5.3
2023-01-12T00:06:06.121Z,5.3
2023-01-12T00:07:06.087Z,5.2
2023-01-12T00:08:07.531Z,5.2
2023-01-12T00:09:06.082Z,5.2
2023-01-12T00:10:06.249Z,5.2
2023-01-12T00:11:05.664Z,5.2
2023-01-12T00:12:06.004Z,5.2
2023-01-12T00:13:06.311Z,5.2
2023-01-12T00:14:06.649Z,5.2
2023-01-12T00:15:05.844Z,5.2
2023-01-12T00:16:06.252Z,5.2
2023-01-12T00:17:05.758Z,5.3
2023-01-12T00:18:06.182Z,5.3
2023-01-12T00:19:06.566Z,5.3
2023-01-12T00:20:05.945Z,5.4
2023-01-12T00:21:06.119Z,5.4
2023-01-12T00:22:06.611Z,5.4
2023-01-12T00:23:04.595Z,5.4
2023-01-12T00:24:05.978Z,5.3
2023-01-12T00:25:06.643Z,5.3
2023-01-12T00:26:05.888Z,5.3
2023-01-12T00:27:06.221Z,5.3
2023-01-12T00:28:06.545Z,5.3
2023-01-12T00:29:05.969Z,5.2
2023-01-12T00:30:05.794Z,5.2
2023-01-12T00:31:06.271Z,5.1
2023-01-12T00:32:05.489Z,5.1
2023-01-12T00:33:06.033Z,5.1
2023-01-12T00:34:05.799Z,5.1
2023-01-12T00:35:05.739Z,5
2023-01-12T00:36:05.895Z,5
2023-01-12T00:37:06.106Z,5
2023-01-12T00:38:06.327Z,5
2023-01-12T00:39:06.674Z,4.9
2023-01-12T00:40:07.440Z,4.9
2023-01-12T00:41:06.357Z,4.8
2023-01-12T00:42:06.088Z,4.8
2023-01-12T00:43:05.741Z,5
2023-01-12T00:44:06.241Z,4.8
2023-01-12T00:45:05.612Z,4.8
2023-01-12T00:46:06.216Z,4.8
2023-01-12T00:47:06.497Z,4.8
2023-01-12T00:48:06.779Z,4.8
2023-01-12T00:49:05.899Z,4.8
2023-01-12T00:50:06.379Z,4.8
2023-01-12T00:51:04.769Z,4.8
2023-01-12T00:52:05.952Z,4.8
2023-01-12T00:53:05.911Z,4.8
2023-01-12T00:54:06.198Z,4.7
2023-01-12T00:55:06.241Z,5
2023-01-12T00:56:06.724Z,4.7
2023-01-12T00:57:05.690Z,4.7
2023-01-12T00:58:05.891Z,4.7
2023-01-12T00:59:06.206Z,4.7
2023-01-12T01:00:06.170Z,4.7
2023-01-12T01:01:06.938Z,4.7
2023-01-12T01:02:06.312Z,4.7
2023-01-12T01:03:06.707Z,4.7
2023-01-12T01:04:05.713Z,4.7
2023-01-12T01:05:06.190Z,5
2023-01-12T01:07:05.729Z,4.7
2023-01-12T01:08:06.303Z,4.7
2023-01-12T01:09:06.205Z,4.6
2023-01-12T01:10:06.499Z,4.6
2023-01-12T01:11:06.002Z,4.6
2023-01-12T01:12:06.089Z,4.6
2023-01-12T01:13:06.599Z,4.6
2023-01-12T01:14:05.965Z,4.6
2023-01-12T01:15:06.191Z,4.6
2023-01-12T01:16:06.737Z,4.6
2023-01-12T01:17:05.784Z,4.6
2023-01-12T01:18:05.988Z,5
2023-01-12T01:19:06.437Z,4.6
2023-01-12T01:20:05.783Z,4.6
2023-01-12T01:21:06.098Z,4.6
2023-01-12T01:22:06.370Z,4.6
2023-01-12T01:23:05.906Z,4.6
2023-01-12T01:24:06.195Z,4.6
2023-01-12T01:25:05.583Z,4.6
2023-01-12T01:26:06.096Z,4.6
2023-01-12T01:27:06.419Z,4.5
2023-01-12T01:28:06.158Z,4.5
2023-01-12T01:29:06.696Z,4.5
2023-01-12T01:30:06.040Z,4.5
2023-01-12T01:31:06.322Z,4.5
2023-01-12T01:32:06.342Z,5
2023-01-12T01:33:06.272Z,4.5
2023-01-12T01:34:05.727Z,4.5
2023-01-12T01:35:06.107Z,4.5
2023-01-12T01:36:05.576Z,4.4
2023-01-12T01:37:05.702Z,4.4
2023-01-12T01:38:06.111Z,4.4
2023-01-12T01:39:06.493Z,4.4
2023-01-12T01:40:05.788Z,4.4
2023-01-12T01:41:05.766Z,4.4
2023-01-12T01:42:06.576Z,5
2023-01-12T01:43:06.223Z,5
2023-01-12T01:44:06.658Z,4.4
2023-01-12T01:45:06.709Z,4.4
2023-01-12T01:46:06.071Z,4.4
2023-01-12T01:47:06.103Z,4.3
2023-01-12T01:48:06.653Z,4.3
2023-01-12T01:49:05.929Z,4.3
2023-01-12T01:50:06.213Z,4.3
2023-01-12T01:51:05.637Z,4.3
2023-01-12T01:52:06.535Z,4.2
2023-01-12T01:53:06.290Z,4
2023-01-12T01:54:05.849Z,4
2023-01-12T01:55:06.271Z,4.2
2023-01-12T01:56:06.249Z,4.2
2023-01-12T01:57:06.239Z,4.2
2023-01-12T01:58:06.150Z,4.2
2023-01-12T01:59:06.454Z,4.2
2023-01-12T02:00:05.965Z,4.2
2023-01-12T02:01:06.606Z,4.1
2023-01-12T02:02:06.647Z,4.1
2023-01-12T02:03:06.530Z,4.1
2023-01-12T02:04:06.123Z,4.1
2023-01-12T02:05:06.545Z,4.1
2023-01-12T02:06:05.907Z,4.1
2023-01-12T02:07:06.088Z,4.1
2023-01-12T02:08:06.459Z,4
2023-01-12T02:09:05.761Z,4
2023-01-12T02:10:06.046Z,4
2023-01-12T02:11:06.391Z,4
2023-01-12T02:12:06.358Z,4
2023-01-12T02:13:05.664Z,4
2023-01-12T02:14:06.296Z,4
2023-01-12T02:15:05.911Z,4
2023-01-12T02:16:06.155Z,3.9
2023-01-12T02:17:06.308Z,4
2023-01-12T02:18:06.670Z,3.9
2023-01-12T02:19:05.937Z,3.9
2023-01-12T02:20:04.905Z,3.8
2023-01-12T02:21:06.142Z,3.8
2023-01-12T02:22:05.719Z,3.8
2023-01-12T02:23:06.158Z,3.8
2023-01-12T02:24:05.801Z,3.8
2023-01-12T02:25:05.943Z,3.8
2023-01-12T02:26:05.599Z,3.8
2023-01-12T02:27:06.056Z,3.8
2023-01-12T02:28:05.938Z,3.7
2023-01-12T02:29:06.688Z,3.7
2023-01-12T02:30:06.067Z,3.7
2023-01-12T02:31:06.091Z,3.7
2023-01-12T02:32:06.437Z,3.7
2023-01-12T02:33:05.905Z,3.6
2023-01-12T02:34:05.928Z,3.6
2023-01-12T02:35:06.300Z,3.6
2023-01-12T02:36:05.761Z,3.7
2023-01-12T02:37:05.872Z,3.7
2023-01-12T02:38:06.213Z,3.6
2023-01-12T02:39:06.108Z,3.6
2023-01-12T02:40:06.532Z,3.6
2023-01-12T02:41:05.977Z,3.6
2023-01-12T02:42:06.301Z,4
2023-01-12T02:43:06.601Z,3.6
2023-01-12T02:44:05.949Z,3.6
2023-01-12T02:45:05.828Z,3.6
2023-01-12T02:46:06.371Z,3.6
2023-01-12T02:47:06.642Z,3.6
2023-01-12T02:48:05.909Z,3.6
2023-01-12T02:49:06.095Z,3.6
2023-01-12T02:50:06.503Z,3.6
2023-01-12T02:51:06.310Z,3.6
2023-01-12T02:52:06.128Z,3.6
2023-01-12T02:53:06.617Z,3.6
2023-01-12T02:54:05.939Z,3.6
2023-01-12T02:55:05.846Z,3.6
2023-01-12T02:56:06.542Z,4
2023-01-12T02:57:05.811Z,3.6
2023-01-12T02:58:05.821Z,3.6
2023-01-12T02:59:06.193Z,3.6
2023-01-12T03:00:05.653Z,3.6
2023-01-12T03:01:06.108Z,3.6
2023-01-12T03:02:06.452Z,3.6
2023-01-12T03:03:05.828Z,3.6
2023-01-12T03:04:06.298Z,3.6
2023-01-12T03:05:05.673Z,3.6
2023-01-12T03:06:05.936Z,3.6
2023-01-12T03:07:05.996Z,3.6
2023-01-12T03:08:06.559Z,3.6
2023-01-12T03:09:06.534Z,3.6
2023-01-12T03:10:05.800Z,3.6
2023-01-12T03:11:06.279Z,3.6
2023-01-12T03:12:06.406Z,3.6
2023-01-12T03:13:06.413Z,3.6
2023-01-12T03:14:05.730Z,3.6
2023-01-12T03:15:06.273Z,3.6
2023-01-12T03:16:05.900Z,3.6
2023-01-12T03:17:06.245Z,3.6
2023-01-12T03:18:06.525Z,3.6
2023-01-12T03:19:06.658Z,3.6
2023-01-12T03:20:06.535Z,3.6
2023-01-12T03:21:05.856Z,3.5
2023-01-12T03:22:05.994Z,3.6
2023-01-12T03:23:06.276Z,3.6
2023-01-12T03:24:06.652Z,3.5
2023-01-12T03:25:05.923Z,3.5
2023-01-12T03:26:04.940Z,3.5
2023-01-12T03:27:06.170Z,4
2023-01-12T03:28:06.008Z,4
2023-01-12T03:29:06.505Z,3.4
2023-01-12T03:30:06.142Z,3.4
2023-01-12T03:31:06.663Z,3.5
2023-01-12T03:32:05.686Z,3.4
2023-01-12T03:33:05.822Z,3.4
2023-01-12T03:34:05.924Z,3.4
2023-01-12T03:35:06.136Z,3.4
2023-01-12T03:36:06.281Z,3.3
2023-01-12T03:37:05.984Z,3.3
2023-01-12T03:38:06.236Z,3.3
2023-01-12T03:39:05.713Z,3
2023-01-12T03:40:06.663Z,3.3
2023-01-12T03:41:05.985Z,3.3
2023-01-12T03:42:05.784Z,3.3
2023-01-12T03:43:06.047Z,3.2
2023-01-12T03:44:06.535Z,3.2
2023-01-12T03:45:05.933Z,3.2
2023-01-12T03:46:05.901Z,3.2
2023-01-12T03:47:06.540Z,3.2
2023-01-12T03:48:06.297Z,3.2
2023-01-12T03:49:05.741Z,3.2
2023-01-12T03:50:06.036Z,3.2
2023-01-12T03:51:06.461Z,3.1
2023-01-12T03:52:06.018Z,3.1
2023-01-12T03:53:06.204Z,3
2023-01-12T03:54:06.700Z,3
2023-01-12T03:55:06.071Z,3
2023-01-12T03:56:05.407Z,3
2023-01-12T03:57:05.769Z,3
2023-01-12T03:58:06.214Z,3
2023-01-12T03:59:05.876Z,3
2023-01-12T04:00:06.100Z,3
2023-01-12T04:01:06.690Z,3
2023-01-12T04:02:06.040Z,2.9
2023-01-12T04:03:06.232Z,2.9
2023-01-12T04:04:05.832Z,2.9
2023-01-12T04:05:06.221Z,2.9
2023-01-12T04:06:06.641Z,2.8
2023-01-12T04:07:06.177Z,2.8
2023-01-12T04:08:06.169Z,3
2023-01-12T04:09:06.615Z,3
2023-01-12T04:10:05.824Z,2.8
2023-01-12T04:11:06.117Z,2.8
2023-01-12T04:12:06.589Z,2.8
2023-01-12T04:13:06.477Z,2.8
2023-01-12T04:14:06.580Z,2.7
2023-01-12T04:15:05.940Z,2.7
2023-01-12T04:16:06.429Z,3
2023-01-12T04:17:05.691Z,2.7
2023-01-12T04:18:06.795Z,2.6
2023-01-12T04:19:06.059Z,2.6
2023-01-12T04:20:06.714Z,2.6
2023-01-12T04:21:05.874Z,2.6
2023-01-12T04:22:06.317Z,2.6
2023-01-12T04:23:05.913Z,2.6
2023-01-12T04:24:05.775Z,2.6
2023-01-12T04:25:07.529Z,2.5
2023-01-12T04:26:06.276Z,2.5
2023-01-12T04:27:06.471Z,2.5
2023-01-12T04:28:06.505Z,2.5
2023-01-12T04:29:06.018Z,2.5
2023-01-12T04:30:06.124Z,2.5
2023-01-12T04:31:06.338Z,2.5
2023-01-12T04:32:06.516Z,2.4
2023-01-12T04:33:04.894Z,2.4
2023-01-12T04:34:06.146Z,2.4
2023-01-12T04:35:06.491Z,2.4
2023-01-12T04:36:05.873Z,2.4
2023-01-12T04:37:06.351Z,2.5
2023-01-12T04:38:06.332Z,2.5
2023-01-12T04:39:06.651Z,2.5
2023-01-12T04:40:06.487Z,2.6
2023-01-12T04:41:05.650Z,2.6
2023-01-12T04:42:06.046Z,2.6
2023-01-12T04:43:09.464Z,2.6
2023-01-12T04:44:06.387Z,2.6
2023-01-12T04:45:06.512Z,2.7
2023-01-12T04:46:06.075Z,2.7
2023-01-12T04:47:05.967Z,2.7
2023-01-12T04:48:06.488Z,2.6
2023-01-12T04:49:05.856Z,2.6
2023-01-12T04:50:06.074Z,2.6
2023-01-12T04:51:06.052Z,2.7
2023-01-12T04:52:06.370Z,2.7
2023-01-12T04:53:06.163Z,3
2023-01-12T04:54:06.103Z,2.7
2023-01-12T04:55:06.116Z,2.7
2023-01-12T04:56:06.340Z,2.8
2023-01-12T04:57:05.820Z,2.8
2023-01-12T04:58:06.124Z,2.8
2023-01-12T04:59:06.526Z,2.8
2023-01-12T05:00:05.816Z,3
2023-01-12T05:01:06.460Z,3
2023-01-12T05:02:06.155Z,2.8
2023-01-12T05:03:05.874Z,2.8
2023-01-12T05:04:09.629Z,2.8
2023-01-12T05:05:05.593Z,2.8
2023-01-12T05:07:06.476Z,3
2023-01-12T05:08:06.163Z,2.8
2023-01-12T05:09:06.501Z,2.8
2023-01-12T05:10:05.832Z,2.8
2023-01-12T05:11:06.147Z,2.9
2023-01-12T05:12:06.272Z,2.9
2023-01-12T05:13:06.520Z,3
2023-01-12T05:14:06.163Z,3
2023-01-12T05:15:05.853Z,2.9
2023-01-12T05:16:05.763Z,3
2023-01-12T05:17:06.326Z,3
2023-01-12T05:18:06.569Z,3
2023-01-12T05:19:05.878Z,3
2023-01-12T05:20:06.300Z,3
2023-01-12T05:21:06.398Z,3
2023-01-12T05:22:06.163Z,3.1
2023-01-12T05:23:06.587Z,3.1
2023-01-12T05:24:05.900Z,3.1
2023-01-12T05:25:06.258Z,3
2023-01-12T05:26:05.991Z,3.1
2023-01-12T05:27:05.871Z,3.1
2023-01-12T05:28:06.253Z,3
2023-01-12T05:29:04.713Z,3
2023-01-12T05:30:06.517Z,2.8
2023-01-12T05:31:06.401Z,2.8
2023-01-12T05:32:06.235Z,2.8
2023-01-12T05:33:05.787Z,2.8
2023-01-12T05:34:06.149Z,2.8
2023-01-12T05:35:05.873Z,2.8
2023-01-12T05:36:06.152Z,2.8
2023-01-12T05:37:05.691Z,2.8
2023-01-12T05:38:06.249Z,2.7
2023-01-12T05:39:05.634Z,2.7
2023-01-12T05:40:05.477Z,2.7
2023-01-12T05:41:05.936Z,2.7
2023-01-12T05:42:06.470Z,2.7
2023-01-12T05:43:05.790Z,2.6
2023-01-12T05:44:06.308Z,2.6
2023-01-12T05:45:06.347Z,2.6
2023-01-12T05:46:06.424Z,2.5
2023-01-12T05:47:05.734Z,2.5
2023-01-12T05:48:05.919Z,2.5
2023-01-12T05:49:06.419Z,2.5
2023-01-12T05:50:06.043Z,2.4
2023-01-12T05:51:07.755Z,2.4
2023-01-12T05:52:05.819Z,2.4
2023-01-12T05:53:06.227Z,2.4
2023-01-12T05:54:06.567Z,2.4
2023-01-12T05:55:06.618Z,2.4
2023-01-12T05:56:05.829Z,2
2023-01-12T05:57:06.063Z,2.4
2023-01-12T05:58:06.333Z,2.4
2023-01-12T05:59:06.626Z,2.4
2023-01-12T06:00:06.260Z,2.4
2023-01-12T06:01:05.946Z,2.4
2023-01-12T06:02:06.544Z,2.4
2023-01-12T06:03:06.563Z,2.4
2023-01-12T06:04:05.762Z,3
2023-01-12T06:05:06.170Z,2.5
2023-01-12T06:06:05.798Z,2.5
2023-01-12T06:07:06.406Z,2.5
2023-01-12T06:08:05.173Z,2.5
2023-01-12T06:09:05.726Z,2.5
2023-01-12T06:10:04.752Z,2.5
2023-01-12T06:11:06.516Z,3
2023-01-12T06:12:07.796Z,2.5
2023-01-12T06:13:06.596Z,2.5
2023-01-12T06:14:06.125Z,2.5
2023-01-12T06:15:06.607Z,2.5
2023-01-12T06:16:06.018Z,2.6
2023-01-12T06:17:06.423Z,2.6
2023-01-12T06:18:06.093Z,2.6
2023-01-12T06:19:06.348Z,2.6
2023-01-12T06:20:05.740Z,2.5
2023-01-12T06:21:06.066Z,3
2023-01-12T06:22:06.383Z,2.6
2023-01-12T06:23:05.652Z,2.6
2023-01-12T06:24:06.019Z,2.6
2023-01-12T06:25:06.370Z,2.6
2023-01-12T06:26:06.273Z,2.6
2023-01-12T06:27:06.400Z,2.6
2023-01-12T06:28:05.930Z,2.6
2023-01-12T06:29:05.996Z,2.6
2023-01-12T06:30:06.354Z,2.6
2023-01-12T06:31:06.395Z,2.6
2023-01-12T06:32:05.688Z,2.6
2023-01-12T06:33:06.629Z,2.6
2023-01-12T06:34:05.467Z,2.6
2023-01-12T06:35:22.276Z,2.6
2023-01-12T06:36:06.364Z,3
2023-01-12T06:37:05.815Z,3
2023-01-12T06:38:06.022Z,3
2023-01-12T06:39:06.388Z,2.7
2023-01-12T06:40:05.703Z,2.7
2023-01-12T06:41:06.173Z,2.7
2023-01-12T06:42:06.646Z,2.7
2023-01-12T06:43:06.380Z,2.7
2023-01-12T06:44:05.685Z,2.7
2023-01-12T06:45:04.920Z,2.7
2023-01-12T06:46:06.226Z,2.8
2023-01-12T06:47:06.051Z,2.8
2023-01-12T06:48:05.894Z,2.7
2023-01-12T06:49:04.604Z,2.7
2023-01-12T06:50:05.867Z,2.7
2023-01-12T06:51:06.336Z,2.7
2023-01-12T06:52:06.576Z,2.7
2023-01-12T06:53:05.874Z,3
2023-01-12T06:54:06.261Z,2.6
2023-01-12T06:55:06.616Z,2.6
2023-01-12T06:56:05.448Z,3
2023-01-12T06:57:06.019Z,2.5
2023-01-12T06:58:06.463Z,2.5
2023-01-12T06:59:06.329Z,2.6
2023-01-12T07:00:06.627Z,2.6
2023-01-12T07:01:06.213Z,2.5
2023-01-12T07:02:06.721Z,2.5
2023-01-12T07:03:05.825Z,2.5
2023-01-12T07:04:06.690Z,2.5
2023-01-12T07:05:06.121Z,2.5
2023-01-12T07:06:05.430Z,2.5
2023-01-12T07:07:05.905Z,2.5
2023-01-12T07:08:06.297Z,2.4
2023-01-12T07:09:05.760Z,2.4
2023-01-12T07:10:06.028Z,2.4
2023-01-12T07:11:05.737Z,2.4
2023-01-12T07:12:06.141Z,2
2023-01-12T07:13:05.129Z,2
2023-01-12T07:14:08.407Z,2.4
2023-01-12T07:15:05.780Z,2.4
2023-01-12T07:16:06.510Z,2.4
2023-01-12T07:17:06.506Z,2.4
2023-01-12T07:18:05.934Z,2.4
2023-01-12T07:19:06.074Z,2.4
2023-01-12T07:20:06.584Z,2.3
2023-01-12T07:21:05.850Z,2.3
2023-01-12T07:22:06.620Z,2.3
2023-01-12T07:23:05.887Z,2.3
2023-01-12T07:24:06.167Z,2.3
2023-01-12T07:25:05.873Z,2.3
2023-01-12T07:26:05.674Z,2.2
2023-01-12T07:27:05.977Z,2.2
2023-01-12T07:28:05.706Z,2.2
2023-01-12T07:29:06.161Z,2.1
2023-01-12T07:30:06.499Z,2.2
2023-01-12T07:31:06.274Z,2.2
2023-01-12T07:32:06.454Z,2
2023-01-12T07:33:05.446Z,2.2
2023-01-12T07:34:06.432Z,2.3
2023-01-12T07:35:06.331Z,2.3
2023-01-12T07:36:06.746Z,2.4
2023-01-12T07:37:06.440Z,2.4
2023-01-12T07:38:05.809Z,2.4
2023-01-12T07:39:06.134Z,2.4
2023-01-12T07:40:06.189Z,2.4
2023-01-12T07:41:06.778Z,2.4
2023-01-12T07:42:06.013Z,2.5
2023-01-12T07:43:06.643Z,2.5
2023-01-12T07:44:06.564Z,2.6
2023-01-12T07:45:05.911Z,2
2023-01-12T07:46:06.145Z,2
2023-01-12T07:47:06.303Z,2.8
2023-01-12T07:48:05.526Z,2.8
2023-01-12T07:49:05.888Z,3
2023-01-12T07:50:04.820Z,2.8
2023-01-12T07:51:06.263Z,2.8
2023-01-12T07:52:06.690Z,2.8
2023-01-12T07:53:06.142Z,2.9
2023-01-12T07:54:06.332Z,2.9
2023-01-12T07:55:05.757Z,3
2023-01-12T07:56:05.628Z,3
2023-01-12T07:57:05.937Z,2.9
2023-01-12T07:58:05.797Z,3
2023-01-12T07:59:06.124Z,3.1
2023-01-12T08:00:06.613Z,3.1
2023-01-12T08:01:06.105Z,3.1
2023-01-12T08:02:06.750Z,3.1
2023-01-12T08:03:05.871Z,3.1
2023-01-12T08:04:05.951Z,3.1
2023-01-12T08:05:06.391Z,3.2
2023-01-12T08:06:06.413Z,3.2
2023-01-12T08:07:06.157Z,3.3
2023-01-12T08:08:07.929Z,3.3
2023-01-12T08:09:05.985Z,4
2023-01-12T08:10:06.277Z,4
2023-01-12T08:11:05.866Z,3.4
2023-01-12T08:12:06.296Z,3.5
2023-01-12T08:13:05.677Z,3.5
2023-01-12T08:14:05.845Z,3.6
2023-01-12T08:15:06.167Z,3.6
2023-01-12T08:16:06.029Z,3.6
2023-01-12T08:17:06.145Z,3.7
2023-01-12T08:18:09.900Z,3.6
2023-01-12T08:19:05.884Z,3.7
2023-01-12T08:20:06.151Z,3.8
2023-01-12T08:21:06.425Z,3.8
2023-01-12T08:22:05.523Z,3.9
2023-01-12T08:23:05.667Z,3.9
2023-01-12T08:24:05.590Z,3.9
2023-01-12T08:25:05.921Z,3.9
2023-01-12T08:26:06.305Z,4
2023-01-12T08:27:05.874Z,4
2023-01-12T08:28:06.086Z,4.1
2023-01-12T08:29:06.384Z,4.1
2023-01-12T08:30:06.712Z,4.1
2023-01-12T08:31:06.302Z,4.2
2023-01-12T08:33:05.828Z,4.4
2023-01-12T08:34:06.195Z,4.4
2023-01-12T08:35:06.528Z,5
2023-01-12T08:36:05.713Z,4.4
2023-01-12T08:37:06.039Z,4.4
2023-01-12T08:38:06.421Z,4.5
2023-01-12T08:39:05.672Z,4.5
2023-01-12T08:40:06.116Z,4.6
2023-01-12T08:41:04.790Z,4.6
2023-01-12T08:42:05.960Z,5
2023-01-12T08:43:06.541Z,5
2023-01-12T08:44:05.566Z,4.6
2023-01-12T08:45:04.703Z,4.6
2023-01-12T08:46:06.337Z,4.7
2023-01-12T08:47:06.604Z,4.7
2023-01-12T08:48:05.790Z,4.7
2023-01-12T08:49:06.044Z,4.8
2023-01-12T08:50:06.438Z,4.7
2023-01-12T08:51:06.573Z,4.8
2023-01-12T08:52:06.724Z,4.8
2023-01-12T08:53:05.859Z,4.8
2023-01-12T08:54:06.189Z,4.8
2023-01-12T08:55:06.459Z,4.8
2023-01-12T08:56:06.290Z,5
2023-01-12T08:57:06.670Z,5
2023-01-12T08:58:06.301Z,5
2023-01-12T08:59:04.721Z,4.9
2023-01-12T09:00:06.203Z,4.9
2023-01-12T09:01:06.950Z,4.9
2023-01-12T09:02:06.225Z,5
2023-01-12T09:03:06.107Z,5
2023-01-12T09:04:06.604Z,5
2023-01-12T09:05:05.558Z,5
2023-01-12T09:06:06.185Z,5.2
2023-01-12T09:07:06.351Z,5.2
2023-01-12T09:08:05.720Z,5.4
2023-01-12T09:09:05.913Z,5.5
2023-01-12T09:10:06.459Z,5.5
2023-01-12T09:11:05.739Z,5.6
2023-01-12T09:12:06.168Z,5.6
2023-01-12T09:13:06.546Z,5.6
2023-01-12T09:14:05.832Z,5
2023-01-12T09:15:06.094Z,5
2023-01-12T09:16:16.935Z,5.8
2023-01-12T09:17:06.046Z,5.8
2023-01-12T09:18:05.981Z,5.8
2023-01-12T09:19:06.354Z,5.8
2023-01-12T09:20:05.947Z,6
2023-01-12T09:21:06.293Z,6
2023-01-12T09:22:05.131Z,5.9
2023-01-12T09:23:06.544Z,5.8
2023-01-12T09:24:06.174Z,5.8
2023-01-12T09:25:05.867Z,5.9
2023-01-12T09:26:05.873Z,5.8
2023-01-12T09:27:06.266Z,5.9
2023-01-12T09:28:06.493Z,5.9
2023-01-12T09:29:06.052Z,5.9
2023-01-12T09:30:06.684Z,5.9
2023-01-12T09:31:06.690Z,5.9
2023-01-12T09:32:05.968Z,5.9
2023-01-12T09:33:06.314Z,5.9
2023-01-12T09:34:06.190Z,5.9
2023-01-12T09:35:05.875Z,5.9
2023-01-12T09:36:06.529Z,6
2023-01-12T09:37:05.889Z,6
2023-01-12T09:38:06.455Z,6
2023-01-12T09:39:09.787Z,6
2023-01-12T09:40:06.251Z,6
2023-01-12T09:41:06.700Z,6
2023-01-12T09:42:06.467Z,6
2023-01-12T09:43:05.860Z,6
2023-01-12T09:44:06.090Z,6
2023-01-12T09:45:06.447Z,6
2023-01-12T09:46:06.429Z,6.1
2023-01-12T09:47:06.273Z,6.1
2023-01-12T09:48:06.709Z,6.2
2023-01-12T09:49:05.995Z,6.2
2023-01-12T09:50:13.684Z,6.2
2023-01-12T09:51:05.711Z,6.4
2023-01-12T09:52:06.140Z,6.4
2023-01-12T09:53:06.421Z,6.4
2023-01-12T09:54:05.857Z,6.4
2023-01-12T09:55:05.729Z,6.4
2023-01-12T09:56:06.137Z,7
2023-01-12T09:57:06.587Z,6.5
2023-01-12T09:58:05.087Z,6.5
2023-01-12T09:59:06.719Z,6.6
2023-01-12T10:00:05.828Z,6.6
2023-01-12T10:01:07.821Z,6.6
2023-01-12T10:02:07.213Z,6.6
2023-01-12T10:03:06.050Z,6.5
2023-01-12T10:04:05.897Z,6.6
2023-01-12T10:05:06.301Z,6.6
2023-01-12T10:06:06.760Z,6.6
2023-01-12T10:07:06.076Z,6.7
2023-01-12T10:08:06.320Z,6.7
2023-01-12T10:09:05.754Z,6.7
2023-01-12T10:10:06.263Z,6.7
2023-01-12T10:11:05.635Z,6.7
2023-01-12T10:12:05.978Z,6.7
2023-01-12T10:13:06.435Z,6.7
2023-01-12T10:14:05.832Z,6.7
2023-01-12T10:15:06.170Z,6.7
2023-01-12T10:16:05.983Z,6.8
2023-01-12T10:17:06.041Z,6.8
2023-01-12T10:18:06.581Z,6.8
2023-01-12T10:19:07.493Z,6.8
2023-01-12T10:20:06.119Z,6.8
2023-01-12T10:21:06.560Z,6.8
2023-01-12T10:22:06.785Z,7
2023-01-12T10:23:06.412Z,7
2023-01-12T10:24:06.129Z,6.8
2023-01-12T10:25:05.718Z,6.8
2023-01-12T10:26:06.203Z,7
2023-01-12T10:27:05.696Z,7
2023-01-12T10:28:06.118Z,7
2023-01-12T10:29:06.488Z,7
2023-01-12T10:30:06.013Z,7
2023-01-12T10:31:06.599Z,7.1
2023-01-12T10:32:05.995Z,7.1
2023-01-12T10:33:05.938Z,7.1
2023-01-12T10:34:05.078Z,7.1
2023-01-12T10:35:06.370Z,7.2
2023-01-12T10:36:06.198Z,7.2
2023-01-12T10:37:06.458Z,7.3
2023-01-12T10:38:05.812Z,7.3
2023-01-12T10:39:06.609Z,7.5
2023-01-12T10:40:05.795Z,7.5
2023-01-12T10:41:06.256Z,7.6
2023-01-12T10:42:06.554Z,7.6
2023-01-12T10:43:19.474Z,7.7
2023-01-12T10:44:05.696Z,7.8
2023-01-12T10:45:06.510Z,8
2023-01-12T10:46:06.749Z,8
2023-01-12T10:47:05.925Z,8.1
2023-01-12T10:48:06.176Z,8.1
2023-01-12T10:49:06.355Z,8.2
2023-01-12T10:50:06.648Z,8.4
2023-01-12T10:51:06.081Z,8.4
2023-01-12T10:52:06.317Z,8.4
2023-01-12T10:53:06.004Z,8.6
2023-01-12T10:54:06.279Z,8
2023-01-12T10:55:05.669Z,8.7
2023-01-12T10:56:06.141Z,8.7
2023-01-12T10:57:06.599Z,8.8
2023-01-12T10:58:06.238Z,8.8
2023-01-12T10:59:06.066Z,8
2023-01-12T11:00:06.709Z,8
2023-01-12T11:01:06.340Z,8.9
2023-01-12T11:02:06.262Z,8.8
2023-01-12T11:03:06.053Z,8.9
2023-01-12T11:04:06.200Z,8.9
2023-01-12T11:05:06.624Z,9
2023-01-12T11:06:06.277Z,9
2023-01-12T11:07:09.414Z,9
2023-01-12T11:08:05.937Z,9
2023-01-12T11:09:05.970Z,9
2023-01-12T11:10:06.457Z,9
2023-01-12T11:11:06.011Z,8.9
2023-01-12T11:12:06.414Z,8.9
2023-01-12T11:13:05.847Z,8.9
2023-01-12T11:14:06.056Z,8.9
2023-01-12T11:15:06.436Z,8.8
2023-01-12T11:16:05.989Z,8.8
2023-01-12T11:17:06.699Z,8
2023-01-12T11:18:06.026Z,8
2023-01-12T11:19:06.295Z,8.7
2023-01-12T11:20:06.573Z,8.7
2023-01-12T11:21:05.835Z,8.7
2023-01-12T11:22:06.112Z,8.7
2023-01-12T11:23:06.566Z,8
2023-01-12T11:24:05.991Z,8.6
2023-01-12T11:25:06.394Z,8.6
2023-01-12T11:26:05.773Z,8.6
2023-01-12T11:27:06.114Z,8.6
2023-01-12T11:28:06.347Z,8.7
2023-01-12T11:29:06.281Z,8.6
2023-01-12T11:30:05.436Z,8.7
2023-01-12T11:31:06.819Z,8
2023-01-12T11:32:05.782Z,8.6
2023-01-12T11:33:06.216Z,8.6
2023-01-12T11:34:06.052Z,8.6
2023-01-12T11:35:11.533Z,8.6
2023-01-12T11:36:05.824Z,8.6
2023-01-12T11:37:06.604Z,8.6
2023-01-12T11:38:05.831Z,8.6
2023-01-12T11:39:06.192Z,8.6
2023-01-12T11:40:06.011Z,8.6
2023-01-12T11:41:06.263Z,8.6
2023-01-12T11:42:06.737Z,8.6
2023-01-12T11:43:05.932Z,8.6
2023-01-12T11:44:06.101Z,8.6
2023-01-12T11:45:06.565Z,8.6
2023-01-12T11:46:06.417Z,8.6
2023-01-12T11:47:06.454Z,8.6
2023-01-12T11:48:05.609Z,8.6
2023-01-12T11:49:05.899Z,8.6
2023-01-12T11:50:06.571Z,8.6
2023-01-12T11:51:06.656Z,8.6
2023-01-12T11:52:05.812Z,8.5
2023-01-12T11:53:06.351Z,8.5
2023-01-12T11:54:06.631Z,8.5
2023-01-12T11:55:06.119Z,8.6
2023-01-12T11:56:06.398Z,8.6
2023-01-12T11:57:06.531Z,8.5
2023-01-12T11:58:06.609Z,8.6
2023-01-12T11:59:05.893Z,8.5
2023-01-12T12:00:06.429Z,8.5
2023-01-12T12:01:06.809Z,8.5
2023-01-12T12:02:06.499Z,8.5
2023-01-12T12:03:06.581Z,8.5
2023-01-12T12:04:06.465Z,8.5
2023-01-12T12:05:06.368Z,8
2023-01-12T12:07:05.899Z,8.5
2023-01-12T12:08:06.369Z,8
2023-01-12T12:09:06.117Z,8.5
2023-01-12T12:10:06.489Z,8.5
2023-01-12T12:11:05.859Z,8.5
2023-01-12T12:12:06.286Z,8.4
2023-01-12T12:13:06.500Z,8.4
2023-01-12T12:14:05.823Z,8.4
2023-01-12T12:15:06.069Z,8.4
2023-01-12T12:16:06.065Z,8.5
2023-01-12T12:17:06.370Z,8
2023-01-12T12:18:04.914Z,8.4
2023-01-12T12:19:06.134Z,8.5
2023-01-12T12:20:06.140Z,8.5
2023-01-12T12:21:06.363Z,8.5
2023-01-12T12:22:05.837Z,8.5
2023-01-12T12:23:06.324Z,8.5
2023-01-12T12:24:05.724Z,8.5
2023-01-12T12:25:05.724Z,8.5
2023-01-12T12:26:05.809Z,8.5
2023-01-12T12:27:06.301Z,8.6
2023-01-12T12:28:06.626Z,8.5
2023-01-12T12:29:05.963Z,8.5
2023-01-12T12:30:06.354Z,8.5
2023-01-12T12:31:06.624Z,8.5
2023-01-12T12:32:05.749Z,8.5
2023-01-12T12:33:05.936Z,8.5
2023-01-12T12:34:06.440Z,8.5
2023-01-12T12:35:05.760Z,8.4
2023-01-12T12:36:05.715Z,8.4
2023-01-12T12:37:05.685Z,8.4
2023-01-12T12:38:06.079Z,8.4
2023-01-12T12:39:06.383Z,8.4
2023-01-12T12:40:05.875Z,8
2023-01-12T12:41:05.994Z,8.4
2023-01-12T12:42:06.437Z,8.4
2023-01-12T12:43:05.865Z,8.4
2023-01-12T12:44:05.979Z,8
2023-01-12T12:45:06.713Z,8
2023-01-12T12:46:06.300Z,8.4
2023-01-12T12:47:06.642Z,8.4
2023-01-12T12:48:06.275Z,8.4
2023-01-12T12:49:06.450Z,8.4
2023-01-12T12:50:05.904Z,8.4
2023-01-12T12:51:05.987Z,8.4
2023-01-12T12:52:06.506Z,8.4
2023-01-12T12:53:06.273Z,8.4
2023-01-12T12:54:06.301Z,8
2023-01-12T12:55:06.696Z,8
2023-01-12T12:56:06.027Z,8.4
2023-01-12T12:57:06.405Z,8.4
2023-01-12T12:58:05.750Z,8.4
2023-01-12T12:59:06.117Z,8.4
2023-01-12T13:00:06.440Z,8.4
2023-01-12T13:01:06.280Z,8.4
2023-01-12T13:02:06.296Z,8.4
2023-01-12T13:03:06.568Z,8
2023-01-12T13:04:05.884Z,8.4
2023-01-12T13:05:07.607Z,8.4
2023-01-12T13:06:06.314Z,8.4
2023-01-12T13:07:06.569Z,8.4
2023-01-12T13:08:05.875Z,8.4
2023-01-12T13:09:06.205Z,8.4
2023-01-12T13:10:06.179Z,8.5
2023-01-12T13:11:06.421Z,8.4
2023-01-12T13:12:05.869Z,8.5
2023-01-12T13:13:06.142Z,8.5
2023-01-12T13:14:06.443Z,8.5
2023-01-12T13:15:05.601Z,8.5
2023-01-12T13:16:06.128Z,8
2023-01-12T13:17:06.238Z,8.6
2023-01-12T13:18:06.610Z,8.6
2023-01-12T13:19:05.883Z,8.6
2023-01-12T13:20:26.783Z,8.6
2023-01-12T13:21:05.889Z,8.7
2023-01-12T13:22:06.291Z,8.6
2023-01-12T13:23:05.678Z,8.7
2023-01-12T13:24:05.913Z,8.7
2023-01-12T13:25:06.109Z,8.7
2023-01-12T13:26:06.477Z,8.7
2023-01-12T13:27:05.806Z,8
2023-01-12T13:28:06.196Z,8.7
2023-01-12T13:29:06.681Z,8
2023-01-12T13:30:05.880Z,8
2023-01-12T13:31:06.604Z,8.7
2023-01-12T13:32:06.204Z,8.7
2023-01-12T13:33:06.336Z,8.8
2023-01-12T13:34:05.685Z,8.7
2023-01-12T13:35:05.841Z,8.7
2023-01-12T13:36:07.153Z,8.7
2023-01-12T13:37:06.349Z,8.7
2023-01-12T13:38:05.741Z,9
2023-01-12T13:39:06.081Z,9
2023-01-12T13:40:06.362Z,8.7
2023-01-12T13:41:05.901Z,9
2023-01-12T13:42:07.692Z,8.6
2023-01-12T13:43:05.785Z,8.6
2023-01-12T13:44:05.923Z,8.6
2023-01-12T13:45:06.364Z,8.6
2023-01-12T13:46:06.049Z,8.6
2023-01-12T13:47:06.135Z,8.6
2023-01-12T13:48:06.496Z,8.6
2023-01-12T13:49:05.991Z,8.5
2023-01-12T13:50:06.510Z,8.5
2023-01-12T13:51:05.770Z,8.5
2023-01-12T13:52:06.435Z,8.5
2023-01-12T13:53:05.900Z,8.5
2023-01-12T13:54:06.203Z,8.5
2023-01-12T13:55:06.517Z,8.4
2023-01-12T13:56:06.002Z,8.4
2023-01-12T13:57:05.957Z,8.5
2023-01-12T13:58:06.635Z,8.5
2023-01-12T13:59:06.372Z,8.5